| time (UTC) | temp F | wind direction | speed knots | gust knots | rain 1hr in | rain 24hr in | rain mn in | humidity % | barometer mb |
| 20260509211557 | 52 | 171 | 2.6 | 7.0 | 0.00 | 0.54 | 0.54 | 93 | 1010.2 |
| 20260509210059 | 52 | 161 | 2.6 | 6.1 | 0.00 | 0.54 | 0.54 | 94 | 1010.3 |
| 20260509204559 | 51 | 201 | 3.5 | 8.7 | 0.00 | 0.54 | 0.54 | 95 | 1010.4 |
| 20260509203050 | 51 | 135 | 1.7 | 5.2 | 0.00 | 0.54 | 0.54 | 95 | 1010.5 |
| 20260509201549 | 51 | 169 | 2.6 | 6.1 | 0.01 | 0.54 | 0.54 | 95 | 1010.5 |
| 20260509200046 | 50 | 157 | 2.6 | 7.8 | 0.02 | 0.54 | 0.54 | 95 | 1010.5 |
| 20260509194545 | 50 | 169 | 3.5 | 7.8 | 0.02 | 0.54 | 0.54 | 95 | 1010.8 |
| 20260509193044 | 50 | 165 | 2.6 | 5.2 | 0.05 | 0.54 | 0.54 | 95 | 1011.0 |
| 20260509191544 | 50 | 159 | 1.7 | 4.3 | 0.06 | 0.53 | 0.53 | 95 | 1011.1 |
| 20260509190041 | 50 | 140 | 0.9 | 6.1 | 0.05 | 0.52 | 0.52 | 95 | 1011.1 |
| 20260509184540 | 49 | 159 | 3.5 | 6.1 | 0.06 | 0.52 | 0.52 | 95 | 1011.2 |
| 20260509183038 | 49 | 141 | 2.6 | 7.0 | 0.03 | 0.49 | 0.49 | 94 | 1011.2 |
| 20260509181538 | 49 | 167 | 2.6 | 6.1 | 0.01 | 0.47 | 0.47 | 94 | 1011.2 |
| 20260509180037 | 50 | 146 | 2.6 | 7.8 | 0.01 | 0.47 | 0.47 | 94 | 1011.1 |
| 20260509174546 | 50 | 157 | 2.6 | 6.1 | 0.00 | 0.46 | 0.46 | 94 | 1011.1 |
| 20260509173041 | 50 | 136 | 3.5 | 7.0 | 0.00 | 0.46 | 0.46 | 94 | 1011.1 |
| 20260509171537 | 49 | 126 | 1.7 | 6.1 | 0.01 | 0.46 | 0.46 | 95 | 1011.0 |
| 20260509170033 | 49 | 123 | 3.5 | 6.1 | 0.01 | 0.46 | 0.46 | 95 | 1011.2 |
| 20260509164534 | 49 | 155 | 1.7 | 4.3 | 0.01 | 0.46 | 0.46 | 95 | 1011.3 |
| 20260509163031 | 49 | 119 | 1.7 | 7.8 | 0.01 | 0.46 | 0.46 | 95 | 1011.2 |
| 20260509161532 | 49 | 126 | 2.6 | 7.8 | 0.00 | 0.45 | 0.45 | 95 | 1011.4 |
| 20260509160028 | 49 | 103 | 2.6 | 4.3 | 0.00 | 0.45 | 0.45 | 94 | 1011.5 |
| 20260509154532 | 49 | 145 | 2.6 | 6.1 | 0.01 | 0.45 | 0.45 | 95 | 1011.7 |
| 20260509153032 | 48 | 117 | 2.6 | 8.7 | 0.02 | 0.45 | 0.45 | 95 | 1011.8 |
| 20260509151524 | 48 | 101 | 3.5 | 9.6 | 0.03 | 0.45 | 0.45 | 95 | 1011.9 |
| 20260509150022 | 48 | 107 | 4.3 | 7.8 | 0.05 | 0.45 | 0.45 | 95 | 1012.0 |
| 20260509144520 | 48 | 186 | 1.7 | 5.2 | 0.05 | 0.44 | 0.44 | 95 | 1012.3 |
| 20260509143020 | 48 | 104 | 1.7 | 5.2 | 0.05 | 0.43 | 0.43 | 96 | 1012.5 |
| 20260509141516 | 48 | 102 | 0.0 | 3.5 | 0.05 | 0.42 | 0.42 | 95 | 1012.6 |
| 20260509140015 | 48 | 80 | 0.9 | 2.6 | 0.04 | 0.40 | 0.40 | 95 | 1012.6 |
| 20260509134514 | 47 | 69 | 0.9 | 2.6 | 0.05 | 0.39 | 0.39 | 96 | 1012.5 |
| 20260509133010 | 47 | 94 | 0.0 | 2.6 | 0.06 | 0.38 | 0.38 | 96 | 1012.5 |
| 20260509131515 | 47 | 102 | 0.9 | 2.6 | 0.07 | 0.37 | 0.37 | 96 | 1012.6 |
| 20260509130011 | 47 | 105 | 1.7 | 3.5 | 0.10 | 0.36 | 0.36 | 96 | 1012.7 |
| 20260509124505 | 46 | 96 | 0.9 | 2.6 | 0.10 | 0.34 | 0.34 | 96 | 1012.8 |
| 20260509123006 | 46 | 126 | 0.9 | 3.5 | 0.11 | 0.32 | 0.32 | 96 | 1012.8 |
| 20260509121508 | 46 | 138 | 2.6 | 7.0 | 0.10 | 0.30 | 0.30 | 95 | 1012.7 |
| 20260509120002 | 46 | 159 | 2.6 | 7.0 | 0.08 | 0.26 | 0.26 | 95 | 1012.9 |
| 20260509114503 | 46 | 123 | 1.7 | 3.5 | 0.07 | 0.24 | 0.24 | 95 | 1013.1 |
| 20260509113103 | 46 | 177 | 1.7 | 5.2 | 0.09 | 0.22 | 0.22 | 95 | 1013.0 |
| 20260509111607 | 45 | 115 | 2.6 | 6.1 | 0.11 | 0.20 | 0.20 | 95 | 1013.1 |
| 20260509110059 | 45 | 109 | 1.7 | 3.5 | 0.11 | 0.18 | 0.18 | 95 | 1013.0 |
| 20260509104556 | 45 | 162 | 1.7 | 4.3 | 0.11 | 0.17 | 0.17 | 95 | 1012.9 |
| 20260509103100 | 45 | 174 | 2.6 | 5.2 | 0.07 | 0.13 | 0.13 | 95 | 1013.0 |
| 20260509101555 | 45 | 128 | 1.7 | 5.2 | 0.03 | 0.09 | 0.09 | 95 | 1012.9 |
| 20260509100053 | 45 | 117 | 1.7 | 6.1 | 0.01 | 0.07 | 0.07 | 94 | 1012.8 |
| 20260509094555 | 45 | 128 | 1.7 | 6.1 | 0.00 | 0.06 | 0.06 | 94 | 1012.8 |
| 20260509093051 | 45 | 128 | 1.7 | 5.2 | 0.01 | 0.06 | 0.06 | 94 | 1012.8 |
| 20260509091550 | 45 | 125 | 1.7 | 5.2 | 0.01 | 0.06 | 0.06 | 94 | 1012.8 |
| 20260509084547 | 45 | 114 | 1.7 | 5.2 | 0.02 | 0.06 | 0.06 | 94 | 1012.9 |
| 20260509083051 | 46 | 119 | 2.6 | 5.2 | 0.01 | 0.05 | 0.05 | 94 | 1013.1 |
| 20260509081545 | 45 | 72 | 0.0 | 2.6 | 0.01 | 0.05 | 0.05 | 93 | 1013.2 |
| 20260509080046 | 46 | 153 | 1.7 | 5.2 | 0.01 | 0.05 | 0.05 | 93 | 1013.6 |
| 20260509074542 | 46 | 146 | 1.7 | 3.5 | 0.00 | 0.04 | 0.04 | 93 | 1013.7 |
| 20260509073045 | 46 | 134 | 1.7 | 3.5 | 0.01 | 0.04 | 0.04 | 93 | 1013.6 |
| 20260509071540 | 46 | 123 | 1.7 | 4.3 | 0.02 | 0.04 | 0.04 | 92 | 1013.4 |
| 20260509070038 | 46 | 155 | 1.7 | 2.6 | 0.04 | 0.04 | 0.04 | 92 | 1013.4 |
| 20260509064541 | 46 | 151 | 0.9 | 2.6 | 0.04 | 0.04 | 0.04 | 92 | 1013.4 |
| 20260509063036 | 46 | 153 | 0.9 | 4.3 | 0.03 | 0.03 | 0.03 | 91 | 1013.6 |
| 20260509061540 | 46 | 142 | 1.7 | 3.5 | 0.02 | 0.02 | 0.02 | 90 | 1013.9 |
| 20260509060032 | 46 | 134 | 0.9 | 2.6 | 0.00 | 0.00 | 0.00 | 88 | 1014.4 |
| 20260509054529 | 46 | 134 | 0.9 | 2.6 | 0.00 | 0.00 | 0.00 | 85 | 1014.5 |
| 20260509053032 | 47 | 131 | 1.7 | 3.5 | 0.00 | 0.00 | 0.00 | 84 | 1014.4 |
| 20260509051527 | 47 | 138 | 1.7 | 3.5 | 0.00 | 0.00 | 0.00 | 83 | 1014.4 |
| 20260509050028 | 47 | 146 | 1.7 | 3.5 | 0.00 | 0.00 | 0.00 | 83 | 1014.2 |
| 20260509044527 | 47 | 111 | 0.9 | 2.6 | 0.00 | 0.00 | 0.00 | 83 | 1014.2 |
| 20260509043024 | 47 | 125 | 0.9 | 2.6 | 0.00 | 0.00 | 0.00 | 82 | 1014.4 |
| 20260509041534 | 47 | 113 | 1.7 | 6.1 | 0.00 | 0.00 | 0.00 | 81 | 1014.5 |
| 20260509040018 | 47 | 80 | 0.9 | 1.7 | 0.00 | 0.00 | 0.00 | 80 | 1014.7 |
| 20260509034518 | 47 | 72 | 0.9 | 1.7 | 0.00 | 0.00 | 0.00 | 80 | 1014.7 |
| 20260509033017 | 46 | 72 | 0.0 | 0.9 | 0.00 | 0.00 | 0.00 | 78 | 1014.7 |
| 20260509031517 | 46 | 72 | 0.0 | 1.7 | 0.00 | 0.00 | 0.00 | 75 | 1014.5 |
| 20260509030017 | 46 | 72 | 0.0 | 1.7 | 0.00 | 0.00 | 0.00 | 77 | 1014.6 |
| 20260509024516 | 46 | 78 | 0.0 | 1.7 | 0.00 | 0.00 | 0.00 | 77 | 1014.7 |
| 20260509023017 | 47 | 78 | 0.0 | 0.9 | 0.00 | 0.00 | 0.00 | 75 | 1014.6 |
| 20260509021515 | 47 | 78 | 0.0 | 1.7 | 0.00 | 0.00 | 0.00 | 72 | 1014.6 |
| 20260509020014 | 47 | 78 | 0.9 | 2.6 | 0.00 | 0.00 | 0.00 | 71 | 1014.9 |
| 20260509014514 | 48 | 78 | 0.9 | 2.6 | 0.00 | 0.00 | 0.00 | 69 | 1014.7 |
| 20260509013013 | 48 | 78 | 0.9 | 2.6 | 0.00 | 0.00 | 0.00 | 67 | 1014.6 |
| 20260509011514 | 48 | 78 | 0.9 | 2.6 | 0.00 | 0.00 | 0.00 | 64 | 1014.4 |
| 20260509010033 | 49 | 77 | 1.7 | 3.5 | 0.00 | 0.00 | 0.00 | 61 | 1014.2 |
| 20260509004523 | 49 | 42 | 0.9 | 2.6 | 0.00 | 0.00 | 0.00 | 56 | 1014.0 |
| 20260509003011 | 49 | 42 | 0.0 | 2.6 | 0.00 | 0.00 | 0.00 | 56 | 1014.0 |
| 20260509001511 | 49 | 42 | 0.0 | 1.7 | 0.00 | 0.00 | 0.00 | 56 | 1014.0 |
| 20260509000010 | 50 | 42 | 0.9 | 1.7 | 0.00 | 0.00 | 0.00 | 55 | 1013.7 |
| 20260508234520 | 50 | 42 | 0.0 | 0.9 | 0.00 | 0.00 | 0.00 | 55 | 1013.6 |
| 20260508233014 | 51 | 42 | 0.0 | 0.9 | 0.00 | 0.00 | 0.00 | 55 | 1013.4 |
| 20260508231509 | 52 | 42 | 0.0 | 0.9 | 0.00 | 0.00 | 0.00 | 54 | 1013.2 |
| 20260508230006 | 52 | 42 | 0.0 | 0.9 | 0.00 | 0.00 | 0.00 | 52 | 1013.3 |
| 20260508224504 | 52 | 42 | 0.0 | 2.6 | 0.00 | 0.00 | 0.00 | 52 | 1013.3 |
| 20260508223004 | 53 | 29 | 0.0 | 2.6 | 0.00 | 0.00 | 0.00 | 51 | 1013.4 |
| 20260508221502 | 54 | 355 | 0.9 | 3.5 | 0.00 | 0.00 | 0.00 | 48 | 1013.3 |
| 20260508220000 | 53 | 205 | 1.7 | 3.5 | 0.00 | 0.00 | 0.00 | 49 | 1013.2 |
| 20260508214607 | 53 | 247 | 0.9 | 3.5 | 0.00 | 0.00 | 0.00 | 51 | 1013.4 |
| 20260508213100 | 53 | 225 | 0.9 | 3.5 | 0.00 | 0.00 | 0.00 | 49 | 1013.4 |